createdAt,value
2017-10-18T00:00:25.400Z,1012.91
2017-10-18T00:01:25.340Z,1012.93
2017-10-18T00:02:25.419Z,1012.93
2017-10-18T00:03:25.293Z,1012.90
2017-10-18T00:04:25.324Z,1012.95
2017-10-18T00:05:25.246Z,1012.93
2017-10-18T00:06:25.234Z,1012.95
2017-10-18T00:07:25.194Z,1012.92
2017-10-18T00:08:25.248Z,1012.94
2017-10-18T00:09:25.148Z,1012.91
2017-10-18T00:10:25.157Z,1012.89
2017-10-18T00:11:25.100Z,1012.90
2017-10-18T00:12:25.169Z,1012.90
2017-10-18T00:13:25.054Z,1012.91
2017-10-18T00:14:25.079Z,1012.89
2017-10-18T00:15:25.006Z,1012.92
2017-10-18T00:16:25.092Z,1012.86
2017-10-18T00:17:24.953Z,1012.88
2017-10-18T00:18:25.002Z,1012.86
2017-10-18T00:19:24.908Z,1012.85
2017-10-18T00:20:24.912Z,1012.83
2017-10-18T00:21:24.857Z,1012.84
2017-10-18T00:22:24.942Z,1012.82
2017-10-18T00:23:24.812Z,1012.78
2017-10-18T00:24:24.838Z,1012.75
2017-10-18T00:25:24.767Z,1012.74
2017-10-18T00:26:24.850Z,1012.74
2017-10-18T00:27:24.719Z,1012.69
2017-10-18T00:28:24.764Z,1012.67
2017-10-18T00:29:24.668Z,1012.68
2017-10-18T00:30:24.668Z,1012.66
2017-10-18T00:31:24.623Z,1012.69
2017-10-18T00:32:24.686Z,1012.64
2017-10-18T00:33:24.571Z,1012.58
2017-10-18T00:34:24.592Z,1012.63
2017-10-18T00:35:24.527Z,1012.60
2017-10-18T00:36:24.604Z,1012.60
2017-10-18T00:37:24.481Z,1012.60
2017-10-18T00:38:24.516Z,1012.60
2017-10-18T00:39:24.424Z,1012.60
2017-10-18T00:40:24.427Z,1012.60
2017-10-18T00:41:24.376Z,1012.58
2017-10-18T00:42:24.436Z,1012.61
2017-10-18T00:43:24.323Z,1012.58
2017-10-18T00:44:24.344Z,1012.58
2017-10-18T00:45:24.277Z,1012.59
2017-10-18T00:46:24.358Z,1012.59
2017-10-18T00:47:24.232Z,1012.60
2017-10-18T00:48:24.268Z,1012.58
2017-10-18T00:49:24.178Z,1012.56
2017-10-18T00:50:24.177Z,1012.55
2017-10-18T00:51:24.128Z,1012.55
2017-10-18T00:52:24.188Z,1012.54
2017-10-18T00:53:24.084Z,1012.51
2017-10-18T00:54:24.098Z,1012.48
2017-10-18T00:55:24.037Z,1012.51
2017-10-18T00:56:24.112Z,1012.50
2017-10-18T00:57:23.984Z,1012.51
2017-10-18T00:58:24.019Z,1012.56
2017-10-18T00:59:23.943Z,1012.48
2017-10-18T01:00:23.929Z,1012.48
2017-10-18T01:01:23.887Z,1012.53
2017-10-18T01:02:23.945Z,1012.49
2017-10-18T01:03:23.843Z,1012.51
2017-10-18T01:04:23.853Z,1012.51
2017-10-18T01:05:23.791Z,1012.54
2017-10-18T01:06:23.868Z,1012.54
2017-10-18T01:07:23.740Z,1012.53
2017-10-18T01:08:23.778Z,1012.50
2017-10-18T01:09:23.693Z,1012.47
2017-10-18T01:10:23.685Z,1012.42
2017-10-18T01:11:23.646Z,1012.38
2017-10-18T01:12:23.698Z,1012.38
2017-10-18T01:13:23.595Z,1012.33
2017-10-18T01:14:23.610Z,1012.29
2017-10-18T01:15:23.544Z,1012.26
2017-10-18T01:16:23.623Z,1012.30
2017-10-18T01:17:23.496Z,1012.27
2017-10-18T01:18:23.534Z,1012.23
2017-10-18T01:19:23.465Z,1012.22
2017-10-18T01:20:23.447Z,1012.20
2017-10-18T01:21:23.400Z,1012.20
2017-10-18T01:22:30.216Z,1012.18
2017-10-18T01:23:23.351Z,1012.17
2017-10-18T01:24:23.367Z,1012.18
2017-10-18T01:25:23.301Z,1012.16
2017-10-18T01:26:23.382Z,1012.15
2017-10-18T01:27:23.254Z,1012.13
2017-10-18T01:28:23.290Z,1012.14
2017-10-18T01:29:23.204Z,1012.12
2017-10-18T01:30:23.202Z,1012.12
2017-10-18T01:31:23.156Z,1012.14
2017-10-18T01:32:23.217Z,1012.12
2017-10-18T01:33:23.101Z,1012.11
2017-10-18T01:34:23.127Z,1012.12
2017-10-18T01:35:23.057Z,1012.15
2017-10-18T01:36:23.132Z,1012.07
2017-10-18T01:37:23.005Z,1012.09
2017-10-18T01:38:23.043Z,1012.09
2017-10-18T01:39:22.957Z,1012.11
2017-10-18T01:40:22.952Z,1012.05
2017-10-18T01:41:22.913Z,1012.08
2017-10-18T01:42:22.962Z,1012.10
2017-10-18T01:43:22.859Z,1012.11
2017-10-18T01:44:22.876Z,1012.13
2017-10-18T01:45:22.806Z,1012.13
2017-10-18T01:46:22.887Z,1012.13
2017-10-18T01:47:22.761Z,1012.11
2017-10-18T01:48:22.794Z,1012.16
2017-10-18T01:49:22.714Z,1012.12
2017-10-18T01:50:22.702Z,1012.12
2017-10-18T01:51:22.663Z,1012.15
2017-10-18T01:52:22.721Z,1012.14
2017-10-18T01:53:22.613Z,1012.11
2017-10-18T01:54:22.630Z,1012.10
2017-10-18T01:55:22.568Z,1012.08
2017-10-18T01:56:22.639Z,1012.09
2017-10-18T01:57:22.515Z,1012.06
2017-10-18T01:58:22.550Z,1012.04
2017-10-18T01:59:22.462Z,1012.03
2017-10-18T02:00:22.463Z,1012.00
2017-10-18T02:01:22.417Z,1011.98
2017-10-18T02:02:22.473Z,1012.01
2017-10-18T02:03:22.364Z,1012.04
2017-10-18T02:04:22.385Z,1011.99
2017-10-18T02:05:22.315Z,1011.96
2017-10-18T02:06:22.397Z,1012.00
2017-10-18T02:07:22.270Z,1011.93
2017-10-18T02:08:22.308Z,1011.98
2017-10-18T02:09:22.216Z,1011.96
2017-10-18T02:10:22.220Z,1011.99
2017-10-18T02:11:22.169Z,1011.97
2017-10-18T02:12:22.232Z,1011.95
2017-10-18T02:13:22.123Z,1011.99
2017-10-18T02:14:22.140Z,1011.94
2017-10-18T02:15:22.070Z,1011.93
2017-10-18T02:16:22.160Z,1011.96
2017-10-18T02:17:22.024Z,1011.95
2017-10-18T02:18:22.063Z,1011.94
2017-10-18T02:19:21.971Z,1011.99
2017-10-18T02:20:21.971Z,1011.98
2017-10-18T02:21:21.928Z,1011.99
2017-10-18T02:22:21.982Z,1011.97
2017-10-18T02:23:21.876Z,1011.99
2017-10-18T02:24:21.892Z,1011.99
2017-10-18T02:25:21.826Z,1011.96
2017-10-18T02:26:21.903Z,1011.95
2017-10-18T02:27:21.775Z,1011.94
2017-10-18T02:28:21.813Z,1011.92
2017-10-18T02:29:21.722Z,1011.92
2017-10-18T02:30:21.728Z,1011.90
2017-10-18T02:31:21.676Z,1011.86
2017-10-18T02:32:21.739Z,1011.88
2017-10-18T02:33:21.626Z,1011.86
2017-10-18T02:34:21.650Z,1011.85
2017-10-18T02:35:21.574Z,1011.83
2017-10-18T02:36:21.664Z,1011.80
2017-10-18T02:37:21.527Z,1011.80
2017-10-18T02:38:21.576Z,1011.81
2017-10-18T02:39:21.478Z,1011.79
2017-10-18T02:40:21.485Z,1011.78
2017-10-18T02:41:21.431Z,1011.79
2017-10-18T02:42:21.498Z,1011.80
2017-10-18T02:43:21.378Z,1011.78
2017-10-18T02:44:21.404Z,1011.80
2017-10-18T02:45:21.328Z,1011.77
2017-10-18T02:46:21.423Z,1011.76
2017-10-18T02:47:21.284Z,1011.76
2017-10-18T02:48:21.329Z,1011.75
2017-10-18T02:49:21.233Z,1011.71
2017-10-18T02:50:21.241Z,1011.73
2017-10-18T02:51:21.193Z,1011.69
2017-10-18T02:52:21.249Z,1011.66
2017-10-18T02:53:21.135Z,1011.64
2017-10-18T02:54:21.164Z,1011.64
2017-10-18T02:55:21.085Z,1011.65
2017-10-18T02:56:21.174Z,1011.64
2017-10-18T02:57:21.035Z,1011.62
2017-10-18T02:58:21.083Z,1011.61
2017-10-18T02:59:20.988Z,1011.64
2017-10-18T03:00:20.999Z,1011.67
2017-10-18T03:01:20.940Z,1011.66
2017-10-18T03:02:21.011Z,1011.61
2017-10-18T03:03:20.888Z,1011.63
2017-10-18T03:04:20.915Z,1011.66
2017-10-18T03:05:20.837Z,1011.60
2017-10-18T03:06:20.934Z,1011.60
2017-10-18T03:07:20.791Z,1011.64
2017-10-18T03:08:20.840Z,1011.64
2017-10-18T03:09:20.741Z,1011.60
2017-10-18T03:10:20.748Z,1011.62
2017-10-18T03:11:20.690Z,1011.62
2017-10-18T03:12:20.768Z,1011.63
2017-10-18T03:13:20.643Z,1011.62
2017-10-18T03:14:20.669Z,1011.60
2017-10-18T03:15:20.598Z,1011.58
2017-10-18T03:16:20.682Z,1011.57
2017-10-18T03:17:20.547Z,1011.57
2017-10-18T03:18:20.592Z,1011.56
2017-10-18T03:19:20.495Z,1011.54
2017-10-18T03:20:21.528Z,1011.52
2017-10-18T03:21:20.444Z,1011.54
2017-10-18T03:22:20.515Z,1011.54
2017-10-18T03:23:20.396Z,1011.58
2017-10-18T03:24:20.432Z,1011.57
2017-10-18T03:25:20.366Z,1011.55
2017-10-18T03:26:20.334Z,1011.57
2017-10-18T03:27:20.299Z,1011.58
2017-10-18T03:28:20.347Z,1011.58
2017-10-18T03:29:20.247Z,1011.57
2017-10-18T03:30:20.257Z,1011.57
2017-10-18T03:31:20.199Z,1011.55
2017-10-18T03:32:20.275Z,1011.53
2017-10-18T03:33:20.156Z,1011.52
2017-10-18T03:34:20.178Z,1011.51
2017-10-18T03:35:20.104Z,1011.47
2017-10-18T03:36:20.193Z,1011.44
2017-10-18T03:37:20.051Z,1011.45
2017-10-18T03:38:20.105Z,1011.40
2017-10-18T03:39:20.004Z,1011.38
2017-10-18T03:40:20.013Z,1011.39
2017-10-18T03:41:19.959Z,1011.39
2017-10-18T03:42:20.025Z,1011.41
2017-10-18T03:43:19.920Z,1011.40
2017-10-18T03:44:19.935Z,1011.42
2017-10-18T03:45:19.862Z,1011.45
2017-10-18T03:46:19.962Z,1011.40
2017-10-18T03:47:19.801Z,1011.40
2017-10-18T03:48:19.857Z,1011.42
2017-10-18T03:49:19.757Z,1011.36
2017-10-18T03:50:19.769Z,1011.37
2017-10-18T03:51:19.710Z,1011.34
2017-10-18T03:52:19.780Z,1011.27
2017-10-18T03:53:19.658Z,1011.28
2017-10-18T03:54:19.690Z,1011.26
2017-10-18T03:55:19.608Z,1011.23
2017-10-18T03:56:19.600Z,1011.25
2017-10-18T03:57:19.559Z,1011.28
2017-10-18T03:58:19.614Z,1011.28
2017-10-18T03:59:19.512Z,1011.26
2017-10-18T04:00:19.523Z,1011.27
2017-10-18T04:01:19.459Z,1011.27
2017-10-18T04:02:19.537Z,1011.32
2017-10-18T04:03:19.740Z,1011.29
2017-10-18T04:04:19.452Z,1011.28
2017-10-18T04:05:19.362Z,1011.28
2017-10-18T04:06:19.356Z,1011.30
2017-10-18T04:07:19.313Z,1011.25
2017-10-18T04:08:19.368Z,1011.23
2017-10-18T04:09:19.269Z,1011.21
2017-10-18T04:10:19.279Z,1011.19
2017-10-18T04:11:19.213Z,1011.20
2017-10-18T04:12:19.288Z,1011.19
2017-10-18T04:13:19.161Z,1011.14
2017-10-18T04:14:19.201Z,1011.11
2017-10-18T04:15:19.129Z,1011.10
2017-10-18T04:16:19.113Z,1011.09
2017-10-18T04:17:19.062Z,1011.11
2017-10-18T04:18:19.124Z,1011.09
2017-10-18T04:19:19.017Z,1011.10
2017-10-18T04:20:19.036Z,1011.09
2017-10-18T04:21:18.965Z,1011.11
2017-10-18T04:22:19.052Z,1011.19
2017-10-18T04:23:18.917Z,1011.17
2017-10-18T04:24:18.955Z,1011.22
2017-10-18T04:25:18.871Z,1011.17
2017-10-18T04:26:18.868Z,1011.24
2017-10-18T04:27:18.859Z,1011.17
2017-10-18T04:28:18.882Z,1011.19
2017-10-18T04:29:18.764Z,1011.17
2017-10-18T04:30:18.793Z,1011.16
2017-10-18T04:31:18.716Z,1011.10
2017-10-18T04:32:18.802Z,1011.12
2017-10-18T04:33:18.670Z,1011.11
2017-10-18T04:34:18.707Z,1011.11
2017-10-18T04:35:18.622Z,1011.10
2017-10-18T04:36:18.625Z,1011.06
2017-10-18T04:37:18.567Z,1011.07
2017-10-18T04:38:18.632Z,1011.14
2017-10-18T04:39:18.519Z,1011.13
2017-10-18T04:40:18.543Z,1011.19
2017-10-18T04:41:18.472Z,1011.21
2017-10-18T04:42:18.555Z,1011.18
2017-10-18T04:43:18.422Z,1011.21
2017-10-18T04:44:18.462Z,1011.18
2017-10-18T04:45:18.369Z,1011.18
2017-10-18T04:46:18.372Z,1011.16
2017-10-18T04:47:18.315Z,1011.16
2017-10-18T04:48:18.395Z,1011.14
2017-10-18T04:49:18.269Z,1011.16
2017-10-18T04:50:18.294Z,1011.17
2017-10-18T04:51:18.220Z,1011.13
2017-10-18T04:52:18.307Z,1011.09
2017-10-18T04:53:18.170Z,1011.08
2017-10-18T04:54:18.217Z,1011.06
2017-10-18T04:55:18.125Z,1011.02
2017-10-18T04:56:18.129Z,1011.02
2017-10-18T04:57:18.073Z,1011.00
2017-10-18T04:58:18.144Z,1010.98
2017-10-18T04:59:18.032Z,1010.97
2017-10-18T05:00:18.051Z,1010.94
2017-10-18T05:01:17.971Z,1010.95
2017-10-18T05:02:17.968Z,1010.89
2017-10-18T05:03:17.918Z,1010.86
2017-10-18T05:04:17.976Z,1010.88
2017-10-18T05:05:17.869Z,1010.84
2017-10-18T05:06:17.888Z,1010.86
2017-10-18T05:07:17.816Z,1010.85
2017-10-18T05:08:17.900Z,1010.81
2017-10-18T05:09:17.770Z,1010.84
2017-10-18T05:10:17.806Z,1010.79
2017-10-18T05:11:17.720Z,1010.75
2017-10-18T05:12:17.724Z,1010.78
2017-10-18T05:13:17.672Z,1010.75
2017-10-18T05:14:17.730Z,1010.74
2017-10-18T05:15:17.623Z,1010.76
2017-10-18T05:16:17.642Z,1010.76
2017-10-18T05:17:17.578Z,1010.77
2017-10-18T05:18:17.649Z,1010.71
2017-10-18T05:19:17.524Z,1010.71
2017-10-18T05:20:17.561Z,1010.66
2017-10-18T05:21:17.474Z,1010.67
2017-10-18T05:22:17.470Z,1010.70
2017-10-18T05:23:17.423Z,1010.67
2017-10-18T05:24:17.485Z,1010.65
2017-10-18T05:25:17.369Z,1010.69
2017-10-18T05:26:17.394Z,1010.69
2017-10-18T05:27:17.324Z,1010.64
2017-10-18T05:28:17.413Z,1010.60
2017-10-18T05:29:17.274Z,1010.65
2017-10-18T05:30:17.319Z,1010.64
2017-10-18T05:31:17.223Z,1010.62
2017-10-18T05:32:17.230Z,1010.59
2017-10-18T05:33:17.175Z,1010.59
2017-10-18T05:34:17.241Z,1010.61
2017-10-18T05:35:17.125Z,1010.61
2017-10-18T05:36:17.155Z,1010.59
2017-10-18T05:37:17.072Z,1010.58
2017-10-18T05:38:17.167Z,1010.57
2017-10-18T05:39:17.024Z,1010.62
2017-10-18T05:40:17.077Z,1010.59
2017-10-18T05:41:16.975Z,1010.60
2017-10-18T05:42:16.989Z,1010.59
2017-10-18T05:43:16.929Z,1010.56
2017-10-18T05:44:16.997Z,1010.61
2017-10-18T05:45:16.878Z,1010.60
2017-10-18T05:46:16.901Z,1010.62
2017-10-18T05:47:16.824Z,1010.65
2017-10-18T05:48:16.817Z,1010.63
2017-10-18T05:49:16.777Z,1010.65
2017-10-18T05:50:16.834Z,1010.64
2017-10-18T05:51:16.728Z,1010.65
2017-10-18T05:52:16.737Z,1010.63
2017-10-18T05:53:16.675Z,1010.61
2017-10-18T05:54:16.749Z,1010.65
2017-10-18T05:55:16.626Z,1010.67
2017-10-18T05:56:16.661Z,1010.62
2017-10-18T05:57:16.582Z,1010.64
2017-10-18T05:58:16.571Z,1010.66
2017-10-18T05:59:16.533Z,1010.66
2017-10-18T06:00:16.584Z,1010.62
2017-10-18T06:01:16.483Z,1010.66
2017-10-18T06:02:16.495Z,1010.65
2017-10-18T06:03:16.427Z,1010.62
2017-10-18T06:04:16.513Z,1010.62
2017-10-18T06:05:16.386Z,1010.65
2017-10-18T06:06:16.418Z,1010.66
2017-10-18T06:07:16.329Z,1010.71
2017-10-18T06:08:16.326Z,1010.62
2017-10-18T06:09:16.283Z,1010.69
2017-10-18T06:10:16.351Z,1010.63
2017-10-18T06:11:16.229Z,1010.61
2017-10-18T06:12:16.262Z,1010.60
2017-10-18T06:13:16.177Z,1010.60
2017-10-18T06:14:16.260Z,1010.58
2017-10-18T06:15:16.135Z,1010.60
2017-10-18T06:16:16.169Z,1010.59
2017-10-18T06:17:16.081Z,1010.65
2017-10-18T06:18:16.077Z,1010.66
2017-10-18T06:19:16.029Z,1010.67
2017-10-18T06:20:16.093Z,1010.65
2017-10-18T06:21:15.982Z,1010.64
2017-10-18T06:22:16.000Z,1010.65
2017-10-18T06:23:15.935Z,1010.63
2017-10-18T06:24:16.015Z,1010.65
2017-10-18T06:25:15.880Z,1010.63
2017-10-18T06:26:15.926Z,1010.63
2017-10-18T06:27:15.829Z,1010.63
2017-10-18T06:28:15.833Z,1010.66
2017-10-18T06:29:15.780Z,1010.66
2017-10-18T06:30:15.852Z,1010.66
2017-10-18T06:31:15.729Z,1010.62
2017-10-18T06:32:15.758Z,1010.63
2017-10-18T06:33:15.684Z,1010.60
2017-10-18T06:34:15.770Z,1010.61
2017-10-18T06:35:15.630Z,1010.62
2017-10-18T06:36:15.683Z,1010.63
2017-10-18T06:37:15.582Z,1010.63
2017-10-18T06:38:15.593Z,1010.59
2017-10-18T06:39:15.532Z,1010.65
2017-10-18T06:40:15.604Z,1010.63
2017-10-18T06:41:15.482Z,1010.64
2017-10-18T06:42:15.512Z,1010.64
2017-10-18T06:43:15.431Z,1010.67
2017-10-18T06:44:15.423Z,1010.69
2017-10-18T06:45:15.381Z,1010.68
2017-10-18T06:46:15.436Z,1010.70
2017-10-18T06:47:15.344Z,1010.75
2017-10-18T06:48:15.346Z,1010.75
2017-10-18T06:49:15.279Z,1010.73
2017-10-18T06:50:15.359Z,1010.73
2017-10-18T06:51:15.233Z,1010.74
2017-10-18T06:52:15.274Z,1010.71
2017-10-18T06:53:15.193Z,1010.73
2017-10-18T06:54:15.184Z,1010.74
2017-10-18T06:55:15.130Z,1010.72
2017-10-18T06:56:15.191Z,1010.72
2017-10-18T06:57:15.085Z,1010.71
2017-10-18T06:58:15.104Z,1010.73
2017-10-18T06:59:15.037Z,1010.67
2017-10-18T07:00:15.111Z,1010.68
2017-10-18T07:01:14.981Z,1010.67
2017-10-18T07:02:15.024Z,1010.67
2017-10-18T07:03:14.936Z,1010.69
2017-10-18T07:04:14.932Z,1010.69
2017-10-18T07:05:14.888Z,1010.67
2017-10-18T07:06:14.966Z,1010.68
2017-10-18T07:07:14.845Z,1010.69
2017-10-18T07:08:14.887Z,1010.68
2017-10-18T07:09:14.789Z,1010.68
2017-10-18T07:10:14.893Z,1010.66
2017-10-18T07:11:14.732Z,1010.60
2017-10-18T07:12:14.809Z,1010.60
2017-10-18T07:13:14.688Z,1010.66
2017-10-18T07:14:14.728Z,1010.64
2017-10-18T07:15:14.637Z,1010.69
2017-10-18T07:16:14.739Z,1010.71
2017-10-18T07:17:14.592Z,1010.72
2017-10-18T07:18:14.648Z,1010.72
2017-10-18T07:19:14.542Z,1010.74
2017-10-18T07:20:14.558Z,1010.73
2017-10-18T07:21:14.490Z,1010.79
2017-10-18T07:22:14.476Z,1010.78
2017-10-18T07:23:14.443Z,1010.81
2017-10-18T07:24:14.486Z,1010.83
2017-10-18T07:25:14.389Z,1010.82
2017-10-18T07:26:14.397Z,1010.83
2017-10-18T07:27:14.343Z,1010.81
2017-10-18T07:28:14.316Z,1010.80
2017-10-18T07:29:14.317Z,1010.80
2017-10-18T07:30:14.287Z,1010.83
2017-10-18T07:31:14.326Z,1010.85
2017-10-18T07:32:14.241Z,1010.81
2017-10-18T07:33:14.245Z,1010.79
2017-10-18T07:34:14.166Z,1010.76
2017-10-18T07:35:14.251Z,1010.77
2017-10-18T07:36:14.121Z,1010.78
2017-10-18T07:37:14.163Z,1010.78
2017-10-18T07:38:14.071Z,1010.78
2017-10-18T07:39:14.077Z,1010.79
2017-10-18T07:40:14.022Z,1010.74
2017-10-18T07:41:14.095Z,1010.76
2017-10-18T07:42:13.970Z,1010.76
2017-10-18T07:43:14.001Z,1010.76
2017-10-18T07:44:13.927Z,1010.78
2017-10-18T07:45:13.913Z,1010.77
2017-10-18T07:46:13.883Z,1010.78
2017-10-18T07:47:13.928Z,1010.82
2017-10-18T07:48:13.830Z,1010.76
2017-10-18T07:49:13.840Z,1010.78
2017-10-18T07:50:13.781Z,1010.77
2017-10-18T07:51:13.852Z,1010.76
2017-10-18T07:52:13.733Z,1010.77
2017-10-18T07:53:13.765Z,1010.75
2017-10-18T07:54:13.688Z,1010.78
2017-10-18T07:55:13.676Z,1010.77
2017-10-18T07:56:13.639Z,1010.79
2017-10-18T07:57:13.694Z,1010.78
2017-10-18T07:58:13.586Z,1010.76
2017-10-18T07:59:13.600Z,1010.74
2017-10-18T08:00:13.542Z,1010.76
2017-10-18T08:01:13.614Z,1010.73
2017-10-18T08:02:13.491Z,1010.75
2017-10-18T08:03:13.529Z,1010.73
2017-10-18T08:04:13.446Z,1010.77
2017-10-18T08:05:13.443Z,1010.71
2017-10-18T08:06:13.395Z,1010.73
2017-10-18T08:07:13.450Z,1010.78
2017-10-18T08:08:13.374Z,1010.77
2017-10-18T08:09:13.318Z,1010.73
2017-10-18T08:10:13.296Z,1010.73
2017-10-18T08:11:13.398Z,1010.74
2017-10-18T08:12:13.251Z,1010.72
2017-10-18T08:13:13.292Z,1010.73
2017-10-18T08:14:13.196Z,1010.73
2017-10-18T08:15:13.205Z,1010.74
2017-10-18T08:16:13.157Z,1010.77
2017-10-18T08:17:13.218Z,1010.77
2017-10-18T08:18:13.105Z,1010.79
2017-10-18T08:19:13.146Z,1010.81
2017-10-18T08:20:13.054Z,1010.80
2017-10-18T08:21:13.143Z,1010.82
2017-10-18T08:22:13.013Z,1010.77
2017-10-18T08:23:13.064Z,1010.82
2017-10-18T08:24:12.960Z,1010.78
2017-10-18T08:25:12.968Z,1010.79
2017-10-18T08:26:12.919Z,1010.83
2017-10-18T08:27:12.980Z,1010.77
2017-10-18T08:28:12.864Z,1010.81
2017-10-18T08:29:12.887Z,1010.81
2017-10-18T08:30:12.813Z,1010.81
2017-10-18T08:31:12.903Z,1010.79
2017-10-18T08:32:12.775Z,1010.83
2017-10-18T08:33:12.818Z,1010.78
2017-10-18T08:34:12.722Z,1010.78
2017-10-18T08:35:12.723Z,1010.84
2017-10-18T08:36:12.677Z,1010.81
2017-10-18T08:37:12.740Z,1010.80
2017-10-18T08:38:12.627Z,1010.79
2017-10-18T08:39:12.658Z,1010.80
2017-10-18T08:40:12.583Z,1010.82
2017-10-18T08:41:12.666Z,1010.81
2017-10-18T08:42:12.530Z,1010.77
2017-10-18T08:43:12.578Z,1010.78
2017-10-18T08:44:12.493Z,1010.76
2017-10-18T08:45:12.488Z,1010.76
2017-10-18T08:46:12.442Z,1010.78
2017-10-18T08:47:12.502Z,1010.80
2017-10-18T08:48:12.390Z,1010.80
2017-10-18T08:49:12.412Z,1010.83
2017-10-18T08:50:12.342Z,1010.80
2017-10-18T08:51:12.427Z,1010.84
2017-10-18T08:52:12.295Z,1010.82
2017-10-18T08:53:12.339Z,1010.81
2017-10-18T08:54:12.249Z,1010.79
2017-10-18T08:55:12.250Z,1010.81
2017-10-18T08:56:12.206Z,1010.84
2017-10-18T08:57:12.262Z,1010.89
2017-10-18T08:58:12.164Z,1010.87
2017-10-18T08:59:12.175Z,1010.82
2017-10-18T09:00:12.650Z,1010.82
2017-10-18T09:01:12.188Z,1010.83
2017-10-18T09:02:12.065Z,1010.83
2017-10-18T09:03:12.111Z,1010.82
2017-10-18T09:04:12.027Z,1010.85
2017-10-18T09:05:12.011Z,1010.81
2017-10-18T09:06:11.972Z,1010.83
2017-10-18T09:07:13.053Z,1010.79
2017-10-18T09:08:11.926Z,1010.74
2017-10-18T09:09:11.935Z,1010.75
2017-10-18T09:10:11.899Z,1010.71
2017-10-18T09:11:11.954Z,1010.70
2017-10-18T09:12:11.839Z,1010.69
2017-10-18T09:13:11.874Z,1010.66
2017-10-18T09:14:11.785Z,1010.68
2017-10-18T09:15:11.894Z,1010.65
2017-10-18T09:16:11.744Z,1010.67
2017-10-18T09:17:11.794Z,1010.66
2017-10-18T09:18:11.697Z,1010.66
2017-10-18T09:19:11.699Z,1010.70
2017-10-18T09:20:11.654Z,1010.74
2017-10-18T09:21:11.717Z,1010.73
2017-10-18T09:22:11.606Z,1010.67
2017-10-18T09:23:11.626Z,1010.71
2017-10-18T09:24:11.555Z,1010.71
2017-10-18T09:25:11.640Z,1010.67
2017-10-18T09:26:11.514Z,1010.69
2017-10-18T09:27:11.551Z,1010.67
2017-10-18T09:28:11.469Z,1010.72
2017-10-18T09:29:12.486Z,1010.82
2017-10-18T09:30:11.425Z,1010.81
2017-10-18T09:31:11.475Z,1010.86
2017-10-18T09:32:11.380Z,1010.86
2017-10-18T09:33:11.388Z,1010.92
2017-10-18T09:34:11.332Z,1010.75
2017-10-18T09:35:11.399Z,1010.74
2017-10-18T09:36:11.290Z,1010.72
2017-10-18T09:37:11.312Z,1010.78
2017-10-18T09:38:11.242Z,1010.78
2017-10-18T09:39:11.326Z,1010.81
2017-10-18T09:40:11.211Z,1010.79
2017-10-18T09:41:11.238Z,1010.89
2017-10-18T09:42:11.163Z,1010.94
2017-10-18T09:43:11.150Z,1010.87
2017-10-18T09:44:11.116Z,1010.90
2017-10-18T09:45:11.166Z,1011.10
2017-10-18T09:46:11.071Z,1010.96
2017-10-18T09:47:11.047Z,1011.04
2017-10-18T09:48:11.083Z,1011.00
2017-10-18T09:49:11.004Z,1011.47
2017-10-18T09:50:11.093Z,1011.70
2017-10-18T09:51:10.963Z,1011.64
2017-10-18T09:52:10.942Z,1011.12
2017-10-18T09:53:11.037Z,1011.32
2017-10-18T09:54:11.020Z,1011.51
2017-10-18T09:55:10.884Z,1011.32
2017-10-18T09:56:10.930Z,1011.52
2017-10-18T09:57:10.841Z,1011.43
2017-10-18T09:58:10.945Z,1011.65
2017-10-18T09:59:10.921Z,1011.65
2017-10-18T10:00:10.856Z,1011.60
2017-10-18T10:01:10.937Z,1011.61
2017-10-18T10:02:10.871Z,1011.63
2017-10-18T10:03:10.731Z,1011.75
2017-10-18T10:04:10.782Z,1011.72
2017-10-18T10:05:10.692Z,1011.72
2017-10-18T10:06:10.799Z,1011.70
2017-10-18T10:07:10.682Z,1011.76
2017-10-18T10:08:10.810Z,1011.70
2017-10-18T10:09:10.626Z,1011.72
2017-10-18T10:10:10.720Z,1011.73
2017-10-18T10:11:10.598Z,1011.74
2017-10-18T10:12:10.733Z,1011.73
2017-10-18T10:13:10.568Z,1011.80
2017-10-18T10:14:10.648Z,1011.79
2017-10-18T10:15:10.537Z,1011.81
2017-10-18T10:16:10.661Z,1011.84
2017-10-18T10:17:10.507Z,1011.83
2017-10-18T10:18:10.569Z,1011.84
2017-10-18T10:19:10.474Z,1011.82
2017-10-18T10:20:10.588Z,1011.85
2017-10-18T10:21:10.448Z,1011.83
2017-10-18T10:22:10.597Z,1011.83
2017-10-18T10:23:10.420Z,1011.81
2017-10-18T10:24:10.508Z,1011.83
2017-10-18T10:25:10.404Z,1011.80
2017-10-18T10:26:10.644Z,1011.83
2017-10-18T10:27:10.368Z,1011.83
2017-10-18T10:28:10.537Z,1011.84
2017-10-18T10:29:10.348Z,1011.81
2017-10-18T10:30:10.447Z,1011.80
2017-10-18T10:31:10.323Z,1011.79
2017-10-18T10:32:10.462Z,1011.80
2017-10-18T10:33:10.313Z,1011.77
2017-10-18T10:34:10.476Z,1011.82
2017-10-18T10:35:10.296Z,1011.79
2017-10-18T10:36:10.408Z,1011.85
2017-10-18T10:37:10.254Z,1011.89
2017-10-18T10:38:10.407Z,1011.89
2017-10-18T10:39:10.322Z,1011.92
2017-10-18T10:40:10.327Z,1011.93
2017-10-18T10:41:10.222Z,1011.97
2017-10-18T10:42:10.335Z,1011.93
2017-10-18T10:43:10.191Z,1011.95
2017-10-18T10:44:10.351Z,1011.92
2017-10-18T10:45:10.175Z,1011.89
2017-10-18T10:46:10.172Z,1011.96
2017-10-18T10:47:10.155Z,1011.96
2017-10-18T10:48:10.275Z,1011.97
2017-10-18T10:49:10.126Z,1011.97
2017-10-18T10:50:10.187Z,1012.00
2017-10-18T10:51:10.128Z,1011.93
2017-10-18T10:52:10.293Z,1011.95
2017-10-18T10:53:10.095Z,1011.95
2017-10-18T10:54:10.207Z,1011.94
2017-10-18T10:55:10.088Z,1011.91
2017-10-18T10:56:10.218Z,1011.91
2017-10-18T10:57:10.055Z,1011.87
2017-10-18T10:58:10.235Z,1011.91
2017-10-18T10:59:10.041Z,1011.89
2017-10-18T11:00:10.157Z,1011.81
2017-10-18T11:01:10.017Z,1011.82
2017-10-18T11:02:10.162Z,1011.82
2017-10-18T11:03:10.017Z,1011.86
2017-10-18T11:04:10.182Z,1011.84
2017-10-18T11:05:09.983Z,1011.83
2017-10-18T11:06:10.086Z,1011.78
2017-10-18T11:07:09.978Z,1011.78
2017-10-18T11:08:10.117Z,1011.79
2017-10-18T11:09:09.955Z,1011.74
2017-10-18T11:10:10.016Z,1011.76
2017-10-18T11:11:09.935Z,1011.78
2017-10-18T11:12:10.128Z,1011.76
2017-10-18T11:13:09.918Z,1011.78
2017-10-18T11:14:10.041Z,1011.79
2017-10-18T11:15:09.898Z,1011.76
2017-10-18T11:16:10.057Z,1011.77
2017-10-18T11:17:09.885Z,1011.70
2017-10-18T11:18:10.071Z,1011.70
2017-10-18T11:19:09.882Z,1011.68
2017-10-18T11:20:10.300Z,1011.65
2017-10-18T11:21:09.859Z,1011.65
2017-10-18T11:22:09.919Z,1011.66
2017-10-18T11:23:09.895Z,1011.62
2017-10-18T11:24:09.833Z,1011.58
2017-10-18T11:25:09.912Z,1011.59
2017-10-18T11:26:09.819Z,1011.64
2017-10-18T11:27:09.823Z,1011.65
2017-10-18T11:28:09.805Z,1011.63
2017-10-18T11:29:09.837Z,1011.61
2017-10-18T11:30:09.789Z,1011.64
2017-10-18T11:31:09.857Z,1011.71
2017-10-18T11:32:09.778Z,1011.69
2017-10-18T11:33:09.865Z,1011.71
2017-10-18T11:34:09.761Z,1011.74
2017-10-18T11:35:09.773Z,1011.81
2017-10-18T11:36:09.750Z,1011.87
2017-10-18T11:37:09.790Z,1011.94
2017-10-18T11:38:09.733Z,1011.97
2017-10-18T11:39:09.803Z,1011.97
2017-10-18T11:40:09.721Z,1012.07
2017-10-18T11:41:09.833Z,1012.12
2017-10-18T11:42:09.705Z,1012.22
2017-10-18T11:43:09.732Z,1012.27
2017-10-18T11:44:09.694Z,1012.29
2017-10-18T11:45:09.742Z,1012.37
2017-10-18T11:46:09.684Z,1012.42
2017-10-18T11:47:09.756Z,1012.52
2017-10-18T11:48:09.678Z,1012.63
2017-10-18T11:49:09.668Z,1012.75
2017-10-18T11:50:09.650Z,1012.79
2017-10-18T11:51:09.681Z,1012.77
2017-10-18T11:52:09.634Z,1012.79
2017-10-18T11:53:09.698Z,1012.75
2017-10-18T11:54:09.621Z,1012.73
2017-10-18T11:55:09.725Z,1012.66
2017-10-18T11:56:09.609Z,1012.65
2017-10-18T11:57:09.621Z,1012.59
2017-10-18T11:58:09.593Z,1012.52
2017-10-18T11:59:09.634Z,1012.39
2017-10-18T12:00:09.574Z,1012.18
2017-10-18T12:01:09.646Z,1012.10
2017-10-18T12:02:09.558Z,1012.04
2017-10-18T12:03:09.660Z,1011.91
2017-10-18T12:04:09.548Z,1011.81
2017-10-18T12:05:09.573Z,1011.77